Huvudsida
METAR-TAF:

METAR-TAF

Flygplatser :

Recife, Pernambuco, Brasilien

Recifes internationella flygplats

latitud: 08-08S, longitud: 034-55W, höjd: 19 m

Aktuellt väderrapport

Denna rapport gjordes för 18 timmar och 17 minuter sedan, klockan 15:00 UTC
Vind 5 kt från ost
Temperatur 28°C
Fuktighet 74%
Tryck 1010 hPa
Sikt 10 km eller mer
Få moln på en höjd av 2000 ft
Brutna moln på en höjd av 7000 ft

METAR: SBRF 201500Z 10005KT 9999 FEW020 BKN070 28/23 Q1010

Tid: 06:17 (09:17 UTC)

Väderprognos

Denna rapport gjordes för 23 timmar och 17 minuter sedan, klockan 10:00 UTC
Prognos gäller från 20 kl. 12 UTC till 21 kl. 12 UTC
Vind 8 kt från ost
Sikt: 9000 m
Spridda moln på en höjd av 2000 ft
Sannolikhet 30%
från 20 kl. 12 UTC till 20 kl. 14 UTC
Sikt: 7000 m
Brutna moln på en höjd av 1800 ft
regnskurar

TAF: SBRF 201000Z 2012/2112 09008KT 9000 SCT020 TX29/2015Z TN25/2109Z PROB30 2012/2014 7000 SHRA BKN018 RMK PEA

Aktuella väderrapporter och prognoser från 4000 flygplatser (METAR- och TAF-rapporter).

De tillgängliga stationerna syns som gula och röda prickar på kartan.

För musen över prickarna för att se namnen på stationerna.

Klicka sedan för att få väderrapporter och prognoser.

För att ändra kartan: Klicka på de gröna knapparna med ett svart kors på för att zooma in; den gröna knappen med ett streck på för att zooma ut; eller på de gröna pilarna för angränsande kartor.


METAR-TAF: